Time;durP1;ratioP1;P1;durP2;ratioP2;P2;SDS_P1;SDS_P2;PMS_P1;PMS_P2;Temp;Humidity;BMP_temperature;BMP_pressure;BME280_temperature;BME280_humidity;BME280_pressure;Samples;Min_cycle;Max_cycle;Signal;HPM_P1;HPM_P2
2021/01/15 00:01:08;;;;;;;4.20;3.20;;;;;;;;;;5003810;28;105155;-49
2021/01/15 00:03:34;;;;;;;6.28;3.75;;;;;;;;;;5004677;28;104967;-49
2021/01/15 00:06:05;;;;;;;6.05;3.95;;;;;;;;;;5005247;28;105210;-49
2021/01/15 00:08:37;;;;;;;5.00;3.80;;;;;;;;;;5006587;28;105589;-48
2021/01/15 00:11:03;;;;;;;5.60;3.67;;;;;;;;;;5003818;28;105055;-50
2021/01/15 00:13:29;;;;;;;5.60;4.03;;;;;;;;;;5005285;28;104894;-50
2021/01/15 00:15:54;;;;;;;5.72;3.90;;;;;;;;;;5006206;28;105429;-51
2021/01/15 00:18:20;;;;;;;5.47;3.92;;;;;;;;;;5007972;28;104968;-48
2021/01/15 00:20:45;;;;;;;5.63;3.80;;;;;;;;;;5008323;28;105158;-49
2021/01/15 00:23:11;;;;;;;5.50;3.80;;;;;;;;;;5008187;28;105023;-48
2021/01/15 00:25:36;;;;;;;6.68;4.00;;;;;;;;;;5008300;28;104953;-49
2021/01/15 00:28:02;;;;;;;6.13;3.88;;;;;;;;;;5008055;28;114978;-50
2021/01/15 00:30:27;;;;;;;6.22;3.60;;;;;;;;;;5011379;28;105000;-50
2021/01/15 00:32:53;;;;;;;5.57;3.85;;;;;;;;;;5006358;28;108798;-49
2021/01/15 00:35:18;;;;;;;6.68;4.07;;;;;;;;;;5007196;28;112668;-50
2021/01/15 00:37:44;;;;;;;5.57;4.07;;;;;;;;;;5007101;28;106001;-52
2021/01/15 00:40:10;;;;;;;5.95;4.10;;;;;;;;;;5008339;28;105665;-49
2021/01/15 00:42:35;;;;;;;6.18;4.18;;;;;;;;;;4990295;28;105267;-49
2021/01/15 00:45:01;;;;;;;5.75;3.90;;;;;;;;;;5007778;28;105281;-49
2021/01/15 00:47:30;;;;;;;6.32;4.05;;;;;;;;;;5007040;28;104867;-51
2021/01/15 00:49:56;;;;;;;6.28;4.53;;;;;;;;;;5005774;28;108284;-50
2021/01/15 00:52:21;;;;;;;7.25;4.45;;;;;;;;;;5005108;28;105111;-53
2021/01/15 00:54:47;;;;;;;7.35;4.78;;;;;;;;;;5007486;28;105587;-50
2021/01/15 00:57:12;;;;;;;6.85;4.32;;;;;;;;;;5001645;28;104946;-49
2021/01/15 00:59:38;;;;;;;7.22;4.82;;;;;;;;;;5007997;28;104998;-50
2021/01/15 01:02:23;;;;;;;6.85;4.88;;;;;;;;;;5007060;28;106396;-49
2021/01/15 01:04:51;;;;;;;7.35;4.72;;;;;;;;;;5006532;28;105511;-50
2021/01/15 01:07:17;;;;;;;7.45;5.07;;;;;;;;;;5007942;28;105754;-50
2021/01/15 01:09:42;;;;;;;8.07;5.20;;;;;;;;;;5006750;28;111814;-50
2021/01/15 01:12:08;;;;;;;8.75;5.32;;;;;;;;;;5011063;28;106309;-50
2021/01/15 01:14:33;;;;;;;8.07;5.55;;;;;;;;;;5007188;28;104941;-51
2021/01/15 01:16:59;;;;;;;8.85;5.88;;;;;;;;;;5006155;28;105021;-50
2021/01/15 01:19:24;;;;;;;8.90;5.75;;;;;;;;;;5007861;28;105538;-49
2021/01/15 01:21:49;;;;;;;7.75;5.32;;;;;;;;;;5007015;28;104810;-50
2021/01/15 01:24:15;;;;;;;8.35;5.70;;;;;;;;;;5007349;28;105116;-50
2021/01/15 01:26:40;;;;;;;7.28;5.13;;;;;;;;;;5006884;28;107247;-52
2021/01/15 01:29:06;;;;;;;8.57;5.72;;;;;;;;;;5006854;28;108170;-49
2021/01/15 01:31:31;;;;;;;7.78;5.53;;;;;;;;;;5008040;28;105158;-52
2021/01/15 01:33:57;;;;;;;8.38;5.95;;;;;;;;;;5010634;28;105557;-51
2021/01/15 01:36:22;;;;;;;8.13;5.78;;;;;;;;;;5006849;28;105011;-54
2021/01/15 01:38:47;;;;;;;8.13;5.75;;;;;;;;;;5006979;28;105344;-54
2021/01/15 01:41:13;;;;;;;9.10;6.25;;;;;;;;;;5006762;28;104979;-54
2021/01/15 01:43:38;;;;;;;9.02;6.00;;;;;;;;;;5007137;28;105132;-53
2021/01/15 01:46:05;;;;;;;8.75;5.97;;;;;;;;;;5004670;28;105163;-51
2021/01/15 01:48:31;;;;;;;8.77;6.07;;;;;;;;;;5003756;28;105042;-50
2021/01/15 01:50:56;;;;;;;8.57;5.93;;;;;;;;;;5006168;28;105060;-49
2021/01/15 01:53:23;;;;;;;8.77;6.00;;;;;;;;;;5006134;28;105915;-51
2021/01/15 01:55:49;;;;;;;8.60;5.85;;;;;;;;;;5008600;28;105850;-51
2021/01/15 01:58:15;;;;;;;8.57;5.90;;;;;;;;;;5005476;28;114897;-51
2021/01/15 02:00:41;;;;;;;8.95;6.45;;;;;;;;;;5006008;28;105737;-50
2021/01/15 02:03:07;;;;;;;8.48;6.00;;;;;;;;;;4988965;28;105029;-53
2021/01/15 02:05:32;;;;;;;8.45;6.00;;;;;;;;;;5007041;28;104927;-54
2021/01/15 02:07:58;;;;;;;8.43;6.32;;;;;;;;;;5006240;28;105138;-51
2021/01/15 02:10:31;;;;;;;8.52;6.25;;;;;;;;;;4989255;28;105335;-53
2021/01/15 02:12:56;;;;;;;9.57;6.60;;;;;;;;;;5005361;28;105009;-51
2021/01/15 02:15:32;;;;;;;9.98;6.10;;;;;;;;;;5004381;28;108553;-50
2021/01/15 02:18:02;;;;;;;8.77;5.90;;;;;;;;;;4993151;28;105443;-52
2021/01/15 02:20:30;;;;;;;8.30;5.88;;;;;;;;;;5021397;28;105112;-50
2021/01/15 02:23:14;;;;;;;8.95;5.95;;;;;;;;;;5006629;28;104969;-50
2021/01/15 02:26:04;;;;;;;8.02;5.70;;;;;;;;;;4988951;28;104882;-52
2021/01/15 02:28:35;;;;;;;8.10;6.10;;;;;;;;;;5004103;28;104989;-51
2021/01/15 02:31:28;;;;;;;8.23;5.93;;;;;;;;;;5006383;28;105611;-50
2021/01/15 02:34:34;;;;;;;7.80;6.00;;;;;;;;;;5005907;28;105659;-51
2021/01/15 02:37:20;;;;;;;8.27;6.10;;;;;;;;;;5003545;28;105693;-53
2021/01/15 02:40:04;;;;;;;9.20;6.43;;;;;;;;;;5003143;28;105366;-50
2021/01/15 02:42:32;;;;;;;8.05;5.60;;;;;;;;;;5009548;28;106834;-50
2021/01/15 02:44:58;;;;;;;7.55;6.07;;;;;;;;;;5005595;28;105077;-50
2021/01/15 02:47:46;;;;;;;8.05;5.85;;;;;;;;;;4988295;28;113133;-49
2021/01/15 02:50:11;;;;;;;9.60;6.18;;;;;;;;;;5003186;28;105658;-49
2021/01/15 02:52:37;;;;;;;8.48;6.40;;;;;;;;;;4988517;28;105550;-50
2021/01/15 02:55:03;;;;;;;8.43;6.22;;;;;;;;;;4987605;28;115434;-50
2021/01/15 02:57:28;;;;;;;8.98;6.32;;;;;;;;;;5005550;28;105551;-52
2021/01/15 02:59:54;;;;;;;9.05;6.38;;;;;;;;;;5005643;28;105034;-49
2021/01/15 03:03:04;;;;;;;8.30;6.30;;;;;;;;;;5005939;28;113296;-49
2021/01/15 03:05:36;;;;;;;8.15;5.97;;;;;;;;;;4940701;28;105072;-52
2021/01/15 03:08:03;;;;;;;8.32;6.05;;;;;;;;;;4985006;28;107717;-50
2021/01/15 03:10:29;;;;;;;9.02;6.78;;;;;;;;;;5004116;28;105033;-49
2021/01/15 03:12:54;;;;;;;11.27;7.40;;;;;;;;;;4988522;28;104993;-50
2021/01/15 03:15:20;;;;;;;9.38;6.53;;;;;;;;;;5004366;28;105609;-49
2021/01/15 03:17:47;;;;;;;11.38;8.00;;;;;;;;;;5005118;28;106013;-49
2021/01/15 03:20:13;;;;;;;9.30;7.03;;;;;;;;;;5004381;28;105325;-49
2021/01/15 03:22:39;;;;;;;9.50;7.32;;;;;;;;;;4988020;28;105670;-49
2021/01/15 03:25:05;;;;;;;9.30;6.72;;;;;;;;;;5007689;28;104955;-49
2021/01/15 03:27:46;;;;;;;9.25;7.10;;;;;;;;;;5005975;28;104950;-50
2021/01/15 03:30:19;;;;;;;8.90;6.68;;;;;;;;;;5003857;28;104923;-50
2021/01/15 03:32:48;;;;;;;9.57;6.82;;;;;;;;;;5004376;28;105498;-50
2021/01/15 03:35:23;;;;;;;9.93;7.18;;;;;;;;;;5005657;28;104898;-49
2021/01/15 03:38:08;;;;;;;10.30;7.25;;;;;;;;;;5002416;28;104956;-49
2021/01/15 03:40:38;;;;;;;9.23;6.95;;;;;;;;;;5004268;28;105033;-49
2021/01/15 03:43:16;;;;;;;10.00;7.07;;;;;;;;;;5005543;28;104991;-49
2021/01/15 03:45:41;;;;;;;9.30;6.80;;;;;;;;;;5004330;28;105007;-49
2021/01/15 03:48:10;;;;;;;9.43;6.75;;;;;;;;;;5009278;28;105866;-52
2021/01/15 03:50:36;;;;;;;8.90;7.00;;;;;;;;;;5004814;28;105315;-49
2021/01/15 03:53:02;;;;;;;9.40;6.60;;;;;;;;;;5005495;28;105295;-50
2021/01/15 03:55:27;;;;;;;10.00;7.47;;;;;;;;;;5005548;28;105353;-49
2021/01/15 03:57:52;;;;;;;10.55;6.85;;;;;;;;;;5004097;28;116784;-49
2021/01/15 04:00:18;;;;;;;8.88;6.53;;;;;;;;;;5005210;28;104905;-52
2021/01/15 04:02:44;;;;;;;9.50;6.65;;;;;;;;;;5005506;28;105019;-49
2021/01/15 04:05:10;;;;;;;9.80;7.03;;;;;;;;;;5003640;28;105445;-50
2021/01/15 04:07:35;;;;;;;9.98;7.20;;;;;;;;;;5004261;28;105228;-50
2021/01/15 04:10:01;;;;;;;10.45;6.95;;;;;;;;;;5007644;28;104965;-49
2021/01/15 04:12:29;;;;;;;9.77;6.85;;;;;;;;;;5005257;28;105204;-49
2021/01/15 04:14:54;;;;;;;10.27;7.13;;;;;;;;;;5003733;28;104964;-49
2021/01/15 04:17:22;;;;;;;9.43;6.82;;;;;;;;;;5004275;28;105021;-49
2021/01/15 04:19:47;;;;;;;9.30;7.03;;;;;;;;;;5003732;28;104964;-50
2021/01/15 04:22:12;;;;;;;9.20;6.80;;;;;;;;;;5003721;28;109958;-49
2021/01/15 04:24:38;;;;;;;10.75;7.15;;;;;;;;;;5004228;28;109634;-50
2021/01/15 04:27:04;;;;;;;9.32;7.03;;;;;;;;;;4987192;28;105009;-49
2021/01/15 04:29:29;;;;;;;9.32;6.88;;;;;;;;;;5004940;28;105822;-50
2021/01/15 04:31:55;;;;;;;10.48;7.43;;;;;;;;;;5007753;28;105221;-49
2021/01/15 04:34:20;;;;;;;9.07;7.03;;;;;;;;;;5003184;28;104991;-53
2021/01/15 04:36:46;;;;;;;11.27;7.85;;;;;;;;;;5001990;28;105014;-49
2021/01/15 04:39:11;;;;;;;10.15;7.47;;;;;;;;;;5004846;28;105333;-49
2021/01/15 04:41:36;;;;;;;9.82;7.25;;;;;;;;;;5003443;28;105478;-53
2021/01/15 04:44:03;;;;;;;10.63;7.80;;;;;;;;;;5004003;28;106190;-52
2021/01/15 04:46:28;;;;;;;10.35;7.57;;;;;;;;;;4986735;28;105338;-52
2021/01/15 04:48:54;;;;;;;10.23;7.28;;;;;;;;;;5004256;28;105641;-49
2021/01/15 04:51:24;;;;;;;9.70;7.00;;;;;;;;;;5004174;28;104990;-51
2021/01/15 04:53:56;;;;;;;10.10;7.35;;;;;;;;;;4990220;28;105458;-50
2021/01/15 04:56:38;;;;;;;9.45;6.93;;;;;;;;;;5003823;28;105670;-51
2021/01/15 04:59:06;;;;;;;9.25;6.93;;;;;;;;;;5003155;28;105003;-51
2021/01/15 05:01:36;;;;;;;9.57;7.15;;;;;;;;;;4987873;28;105595;-50
2021/01/15 05:04:05;;;;;;;10.68;7.57;;;;;;;;;;5005431;28;106632;-51
2021/01/15 05:06:30;;;;;;;8.82;7.07;;;;;;;;;;5004675;28;105103;-53
2021/01/15 05:08:56;;;;;;;10.02;7.63;;;;;;;;;;4989283;28;114441;-49
2021/01/15 05:11:21;;;;;;;9.40;6.97;;;;;;;;;;5005647;28;112792;-50
2021/01/15 05:13:47;;;;;;;10.23;7.28;;;;;;;;;;4989672;28;104915;-49
2021/01/15 05:16:12;;;;;;;13.43;7.90;;;;;;;;;;4992503;28;114765;-49
2021/01/15 05:18:38;;;;;;;10.18;7.40;;;;;;;;;;4989627;28;105072;-53
2021/01/15 05:21:03;;;;;;;9.60;7.30;;;;;;;;;;5007398;28;110875;-52
2021/01/15 05:23:29;;;;;;;10.85;8.63;;;;;;;;;;5005600;28;105337;-52
2021/01/15 05:25:54;;;;;;;11.13;8.40;;;;;;;;;;4972285;28;105357;-51
2021/01/15 05:28:21;;;;;;;10.88;7.90;;;;;;;;;;5007351;28;111585;-50
2021/01/15 05:31:13;;;;;;;9.80;7.65;;;;;;;;;;5005583;28;105344;-49
2021/01/15 05:33:38;;;;;;;10.45;7.75;;;;;;;;;;5000325;28;104956;-50
2021/01/15 05:36:04;;;;;;;10.73;8.20;;;;;;;;;;5009838;28;105038;-49
2021/01/15 05:38:29;;;;;;;10.65;8.30;;;;;;;;;;5007569;28;104958;-49
2021/01/15 05:40:55;;;;;;;10.77;8.23;;;;;;;;;;5007429;28;105624;-49
2021/01/15 05:43:21;;;;;;;11.10;8.43;;;;;;;;;;5005564;28;105369;-50
2021/01/15 05:46:11;;;;;;;11.75;8.55;;;;;;;;;;5006882;28;104872;-49
2021/01/15 05:48:38;;;;;;;11.32;8.55;;;;;;;;;;4993514;28;105766;-49
2021/01/15 05:51:04;;;;;;;11.05;8.50;;;;;;;;;;5006391;28;105005;-49
2021/01/15 05:53:40;;;;;;;11.32;8.55;;;;;;;;;;5007137;28;105011;-50
2021/01/15 05:56:05;;;;;;;11.38;8.57;;;;;;;;;;5004382;28;105548;-50
2021/01/15 05:58:31;;;;;;;11.68;8.70;;;;;;;;;;4996734;28;105691;-51
2021/01/15 06:00:56;;;;;;;12.60;9.30;;;;;;;;;;5005199;28;113530;-50
2021/01/15 06:03:22;;;;;;;11.95;8.82;;;;;;;;;;5006572;28;104955;-49
2021/01/15 06:05:48;;;;;;;12.63;9.07;;;;;;;;;;5006869;28;105205;-52
2021/01/15 06:08:14;;;;;;;11.48;8.82;;;;;;;;;;5006727;28;105303;-51
2021/01/15 06:10:47;;;;;;;12.00;9.10;;;;;;;;;;5005695;28;114320;-49
2021/01/15 06:13:38;;;;;;;11.95;8.85;;;;;;;;;;5005153;28;105014;-52
2021/01/15 06:16:05;;;;;;;11.47;9.27;;;;;;;;;;5006414;28;105055;-50
2021/01/15 06:18:31;;;;;;;12.30;9.32;;;;;;;;;;5004494;28;104903;-50
2021/01/15 06:21:07;;;;;;;11.95;9.13;;;;;;;;;;4992288;28;105026;-49
2021/01/15 06:23:34;;;;;;;11.35;8.90;;;;;;;;;;5006277;28;104939;-52
2021/01/15 06:26:00;;;;;;;11.20;8.82;;;;;;;;;;4972017;28;105351;-48
2021/01/15 06:28:33;;;;;;;12.95;9.05;;;;;;;;;;4988918;28;105383;-48
2021/01/15 06:30:59;;;;;;;12.00;8.95;;;;;;;;;;5005398;28;105569;-48
2021/01/15 06:33:25;;;;;;;11.18;8.43;;;;;;;;;;5006257;28;105712;-50
2021/01/15 06:35:50;;;;;;;12.25;9.23;;;;;;;;;;5004749;28;106679;-49
2021/01/15 06:38:17;;;;;;;11.60;8.82;;;;;;;;;;5005343;28;105017;-52
2021/01/15 06:40:43;;;;;;;11.82;8.90;;;;;;;;;;4988387;28;106349;-52
2021/01/15 06:43:25;;;;;;;11.20;8.88;;;;;;;;;;5009089;28;104935;-49
2021/01/15 06:45:54;;;;;;;11.80;8.65;;;;;;;;;;5005083;28;105430;-48
2021/01/15 06:48:21;;;;;;;11.25;8.60;;;;;;;;;;5006318;28;105342;-48
2021/01/15 06:50:51;;;;;;;11.77;8.60;;;;;;;;;;5005621;28;104939;-48
2021/01/15 06:53:20;;;;;;;12.02;8.77;;;;;;;;;;5004951;28;104949;-48
2021/01/15 06:55:49;;;;;;;11.90;8.75;;;;;;;;;;5004589;28;105178;-49
2021/01/15 06:58:25;;;;;;;11.88;8.88;;;;;;;;;;5004222;28;105584;-50
2021/01/15 07:01:21;;;;;;;11.38;8.68;;;;;;;;;;5005120;28;105217;-48
2021/01/15 07:04:09;;;;;;;13.32;9.73;;;;;;;;;;5004284;28;105058;-49
2021/01/15 07:06:35;;;;;;;11.25;8.38;;;;;;;;;;5007499;28;105104;-49
2021/01/15 07:09:08;;;;;;;11.82;8.55;;;;;;;;;;5004680;28;105161;-50
2021/01/15 07:11:34;;;;;;;11.60;9.02;;;;;;;;;;5002865;28;105592;-49
2021/01/15 07:14:04;;;;;;;12.63;9.15;;;;;;;;;;5004586;28;105063;-49
2021/01/15 07:16:33;;;;;;;12.00;8.90;;;;;;;;;;5002114;28;105289;-51
2021/01/15 07:19:16;;;;;;;11.77;8.70;;;;;;;;;;5004348;28;106192;-49
2021/01/15 07:22:03;;;;;;;11.70;8.55;;;;;;;;;;5004407;28;105079;-50
2021/01/15 07:24:29;;;;;;;11.23;8.48;;;;;;;;;;5004495;28;104953;-51
2021/01/15 07:26:55;;;;;;;11.82;8.70;;;;;;;;;;5003346;28;105522;-51
2021/01/15 07:29:20;;;;;;;11.73;8.68;;;;;;;;;;5008578;28;105643;-49
2021/01/15 07:31:49;;;;;;;11.75;9.23;;;;;;;;;;5004855;28;104937;-49
2021/01/15 07:34:22;;;;;;;11.18;8.40;;;;;;;;;;5003830;28;105109;-49
2021/01/15 07:36:48;;;;;;;10.70;8.32;;;;;;;;;;5001986;28;105314;-49
2021/01/15 07:39:17;;;;;;;11.15;8.43;;;;;;;;;;5004532;28;105044;-50
2021/01/15 07:41:52;;;;;;;11.20;8.48;;;;;;;;;;5003834;28;105599;-49
2021/01/15 07:44:21;;;;;;;11.23;8.70;;;;;;;;;;5002507;28;105796;-50
2021/01/15 07:46:52;;;;;;;10.52;8.50;;;;;;;;;;4982842;28;107196;-50
2021/01/15 07:49:18;;;;;;;11.85;8.73;;;;;;;;;;5008204;28;105665;-52
2021/01/15 07:52:07;;;;;;;11.52;8.52;;;;;;;;;;5004630;28;105084;-52
2021/01/15 07:54:50;;;;;;;11.95;8.95;;;;;;;;;;5003584;28;105202;-52
2021/01/15 07:57:17;;;;;;;12.00;8.57;;;;;;;;;;5004263;28;105826;-50
2021/01/15 07:59:42;;;;;;;11.48;8.63;;;;;;;;;;5003301;28;105089;-50
2021/01/15 08:02:08;;;;;;;11.77;8.73;;;;;;;;;;5005402;28;105174;-50
2021/01/15 08:04:33;;;;;;;12.43;9.15;;;;;;;;;;5003939;28;105715;-50
2021/01/15 08:07:32;;;;;;;12.68;9.30;;;;;;;;;;5004171;28;105489;-49
2021/01/15 08:09:58;;;;;;;11.57;8.60;;;;;;;;;;4998830;28;105351;-49
2021/01/15 08:12:23;;;;;;;12.38;8.82;;;;;;;;;;5008199;28;105455;-50
2021/01/15 08:14:49;;;;;;;12.75;9.45;;;;;;;;;;5004857;28;105779;-49
2021/01/15 08:17:24;;;;;;;12.23;9.40;;;;;;;;;;5004537;28;105674;-51
2021/01/15 08:19:50;;;;;;;11.68;8.88;;;;;;;;;;5001862;28;105247;-49
2021/01/15 08:22:15;;;;;;;12.45;8.98;;;;;;;;;;5002508;28;105787;-49
2021/01/15 08:24:48;;;;;;;11.90;8.93;;;;;;;;;;5004701;28;105705;-51
2021/01/15 08:27:17;;;;;;;12.15;8.85;;;;;;;;;;5004277;28;105531;-50
2021/01/15 08:29:42;;;;;;;12.23;9.07;;;;;;;;;;5004953;28;104959;-50
2021/01/15 08:32:08;;;;;;;11.27;8.93;;;;;;;;;;5005011;28;105802;-50
2021/01/15 08:34:35;;;;;;;10.90;8.48;;;;;;;;;;5006894;28;105475;-52
2021/01/15 08:37:05;;;;;;;12.40;9.00;;;;;;;;;;5006043;28;105384;-51
2021/01/15 08:39:55;;;;;;;11.65;8.57;;;;;;;;;;5004983;28;105293;-50
2021/01/15 08:42:20;;;;;;;12.80;9.20;;;;;;;;;;5006168;28;104943;-51
2021/01/15 08:44:47;;;;;;;11.15;8.13;;;;;;;;;;5007487;28;116153;-48
2021/01/15 08:47:13;;;;;;;11.27;8.15;;;;;;;;;;5007490;28;106171;-50
2021/01/15 08:49:39;;;;;;;11.07;8.15;;;;;;;;;;5008036;28;104963;-52
2021/01/15 08:52:05;;;;;;;11.50;8.50;;;;;;;;;;5005194;28;108650;-49
2021/01/15 08:54:31;;;;;;;13.65;8.50;;;;;;;;;;4989810;28;105893;-49
2021/01/15 08:56:57;;;;;;;12.35;8.38;;;;;;;;;;5011338;28;105243;-50
2021/01/15 08:59:27;;;;;;;11.20;8.23;;;;;;;;;;5006263;28;105540;-48
2021/01/15 09:01:59;;;;;;;11.85;8.50;;;;;;;;;;5008035;28;104918;-50
2021/01/15 09:04:27;;;;;;;12.13;8.18;;;;;;;;;;5007914;28;106113;-49
2021/01/15 09:06:53;;;;;;;11.40;7.80;;;;;;;;;;5006783;28;105771;-48
2021/01/15 09:09:19;;;;;;;11.45;8.25;;;;;;;;;;5007785;28;104966;-49
2021/01/15 09:11:45;;;;;;;11.20;8.30;;;;;;;;;;5004566;28;104986;-48
2021/01/15 09:14:13;;;;;;;11.38;8.50;;;;;;;;;;5007092;28;105638;-50
2021/01/15 09:16:39;;;;;;;11.65;8.57;;;;;;;;;;5006038;28;105086;-49
2021/01/15 09:19:12;;;;;;;10.80;7.80;;;;;;;;;;5007934;28;105688;-48
2021/01/15 09:21:59;;;;;;;11.80;8.23;;;;;;;;;;5007836;28;104960;-48
2021/01/15 09:24:24;;;;;;;11.75;8.50;;;;;;;;;;5006464;28;105161;-51
2021/01/15 09:26:57;;;;;;;11.93;9.00;;;;;;;;;;5006909;28;105648;-49
2021/01/15 09:29:23;;;;;;;10.93;7.95;;;;;;;;;;5007223;28;105067;-49
2021/01/15 09:31:49;;;;;;;10.82;7.97;;;;;;;;;;5006090;28;105675;-51
2021/01/15 09:34:14;;;;;;;11.18;8.10;;;;;;;;;;5006450;28;104935;-50
2021/01/15 09:36:41;;;;;;;10.45;7.63;;;;;;;;;;5006420;28;105112;-51
2021/01/15 09:39:07;;;;;;;11.02;7.72;;;;;;;;;;5006167;28;105077;-57
2021/01/15 09:41:32;;;;;;;10.82;7.90;;;;;;;;;;5008846;28;105054;-55
2021/01/15 09:43:58;;;;;;;11.30;8.15;;;;;;;;;;5007177;28;108173;-55
2021/01/15 09:46:24;;;;;;;11.00;8.10;;;;;;;;;;5006510;28;104863;-55
2021/01/15 09:48:50;;;;;;;11.40;8.15;;;;;;;;;;5006737;28;104903;-57
2021/01/15 09:51:16;;;;;;;11.23;8.20;;;;;;;;;;5006254;28;105639;-54
2021/01/15 09:53:41;;;;;;;11.02;8.27;;;;;;;;;;5005262;28;105024;-54
2021/01/15 09:56:07;;;;;;;12.65;8.40;;;;;;;;;;5005441;28;104916;-50
2021/01/15 09:58:32;;;;;;;10.68;7.95;;;;;;;;;;5006686;28;113167;-51
2021/01/15 10:00:57;;;;;;;10.68;7.88;;;;;;;;;;5009808;28;105682;-51
2021/01/15 10:03:23;;;;;;;11.23;7.80;;;;;;;;;;5007069;28;105277;-55
2021/01/15 10:05:48;;;;;;;11.98;8.07;;;;;;;;;;5005858;28;104905;-53
2021/01/15 10:08:14;;;;;;;11.25;7.93;;;;;;;;;;5006933;28;105202;-48
2021/01/15 10:10:39;;;;;;;10.40;7.43;;;;;;;;;;5006227;28;119239;-50
2021/01/15 10:13:05;;;;;;;10.63;7.38;;;;;;;;;;5002860;28;105735;-50
2021/01/15 10:15:30;;;;;;;10.20;7.82;;;;;;;;;;5000564;28;105676;-50
2021/01/15 10:17:56;;;;;;;10.35;7.65;;;;;;;;;;5006696;28;105024;-50
2021/01/15 10:20:25;;;;;;;11.23;7.50;;;;;;;;;;5004800;28;111302;-50
2021/01/15 10:22:52;;;;;;;10.18;7.30;;;;;;;;;;5009496;28;105991;-52
2021/01/15 10:25:17;;;;;;;10.43;7.53;;;;;;;;;;5004944;28;104879;-50
2021/01/15 10:27:42;;;;;;;10.38;7.60;;;;;;;;;;5005869;28;105383;-54
2021/01/15 10:30:08;;;;;;;10.70;7.68;;;;;;;;;;5006517;28;105732;-51
2021/01/15 10:32:34;;;;;;;10.60;7.45;;;;;;;;;;5005851;28;105508;-61
2021/01/15 10:35:00;;;;;;;10.13;7.60;;;;;;;;;;5006309;28;105366;-49
2021/01/15 10:37:25;;;;;;;10.40;7.40;;;;;;;;;;5018251;28;106953;-51
2021/01/15 10:39:51;;;;;;;11.52;8.13;;;;;;;;;;5005711;28;111898;-48
2021/01/15 10:42:16;;;;;;;11.70;8.07;;;;;;;;;;4998520;28;104984;-49
2021/01/15 10:44:42;;;;;;;10.10;7.28;;;;;;;;;;5009061;28;105704;-49
2021/01/15 10:47:07;;;;;;;10.90;7.60;;;;;;;;;;5005911;28;104932;-48
2021/01/15 10:49:33;;;;;;;10.65;7.70;;;;;;;;;;5006139;28;105315;-50
2021/01/15 10:51:58;;;;;;;13.45;10.90;;;;;;;;;;5005626;28;105170;-53
2021/01/15 10:54:24;;;;;;;10.35;7.88;;;;;;;;;;5005551;28;105018;-52
2021/01/15 10:56:51;;;;;;;9.30;7.03;;;;;;;;;;5005664;28;104904;-51
2021/01/15 10:59:17;;;;;;;10.88;7.15;;;;;;;;;;5003376;28;104972;-53
2021/01/15 11:01:44;;;;;;;9.68;6.70;;;;;;;;;;5004105;28;105482;-51
2021/01/15 11:04:11;;;;;;;9.00;6.60;;;;;;;;;;5005842;28;104965;-52
2021/01/15 11:06:37;;;;;;;10.32;6.93;;;;;;;;;;5007477;28;105017;-53
2021/01/15 11:09:04;;;;;;;10.20;7.75;;;;;;;;;;5004610;28;104890;-51
2021/01/15 11:11:30;;;;;;;10.38;7.30;;;;;;;;;;5003562;28;107344;-50
2021/01/15 11:13:55;;;;;;;10.27;7.53;;;;;;;;;;5005667;28;104864;-53
2021/01/15 11:16:20;;;;;;;10.70;8.18;;;;;;;;;;5005539;28;105709;-51
2021/01/15 11:18:46;;;;;;;8.52;6.63;;;;;;;;;;5004897;28;105524;-49
2021/01/15 11:21:12;;;;;;;10.75;7.28;;;;;;;;;;5005615;28;104943;-50
2021/01/15 11:23:37;;;;;;;9.18;6.80;;;;;;;;;;5004591;28;105437;-50
2021/01/15 11:26:03;;;;;;;9.63;7.18;;;;;;;;;;5003256;28;105076;-49
2021/01/15 11:28:28;;;;;;;9.68;7.05;;;;;;;;;;5009436;28;104921;-50
2021/01/15 11:30:53;;;;;;;10.48;7.53;;;;;;;;;;4987053;28;104998;-50
2021/01/15 11:33:19;;;;;;;10.73;6.95;;;;;;;;;;4997657;28;104981;-49
2021/01/15 11:35:44;;;;;;;9.38;6.88;;;;;;;;;;5003470;28;105789;-49
2021/01/15 11:38:10;;;;;;;10.27;7.57;;;;;;;;;;5004255;28;113553;-50
2021/01/15 11:40:35;;;;;;;10.45;7.88;;;;;;;;;;5005497;28;105283;-51
2021/01/15 11:43:01;;;;;;;8.65;6.50;;;;;;;;;;5003804;28;105105;-49
2021/01/15 11:45:26;;;;;;;8.82;6.53;;;;;;;;;;5003157;28;104967;-49
2021/01/15 11:47:55;;;;;;;10.80;7.80;;;;;;;;;;5008737;28;104950;-51
2021/01/15 11:50:21;;;;;;;8.73;6.47;;;;;;;;;;5003430;28;105590;-51
2021/01/15 11:52:47;;;;;;;11.25;7.13;;;;;;;;;;5004266;28;104983;-49
2021/01/15 11:55:13;;;;;;;9.43;6.43;;;;;;;;;;5005235;28;104972;-50
2021/01/15 11:57:39;;;;;;;11.40;8.30;;;;;;;;;;4986532;28;106053;-52
2021/01/15 12:00:05;;;;;;;9.73;7.00;;;;;;;;;;5004862;28;104885;-49
2021/01/15 12:02:32;;;;;;;9.13;6.70;;;;;;;;;;5005232;28;104982;-49
2021/01/15 12:04:58;;;;;;;8.80;6.13;;;;;;;;;;5004215;28;104958;-49
2021/01/15 12:07:23;;;;;;;9.27;6.53;;;;;;;;;;5004628;28;104983;-49
2021/01/15 12:09:49;;;;;;;9.95;6.32;;;;;;;;;;5006707;28;106817;-50
2021/01/15 12:12:14;;;;;;;9.55;6.85;;;;;;;;;;5007396;28;105077;-49
2021/01/15 12:14:40;;;;;;;9.35;6.50;;;;;;;;;;5008534;28;105755;-50
2021/01/15 12:17:05;;;;;;;8.88;6.55;;;;;;;;;;5008102;28;105458;-50
2021/01/15 12:19:30;;;;;;;9.90;6.75;;;;;;;;;;5008327;28;105580;-49
2021/01/15 12:21:56;;;;;;;9.32;6.70;;;;;;;;;;5008400;28;104888;-49
2021/01/15 12:24:21;;;;;;;10.63;7.35;;;;;;;;;;5007526;28;105519;-48
2021/01/15 12:26:47;;;;;;;9.63;6.68;;;;;;;;;;5008016;28;104824;-49
2021/01/15 12:29:12;;;;;;;9.45;6.85;;;;;;;;;;5008280;28;105555;-49
2021/01/15 12:31:38;;;;;;;10.38;6.82;;;;;;;;;;5011341;28;105662;-50
2021/01/15 12:34:03;;;;;;;9.93;6.80;;;;;;;;;;5008189;28;107437;-49
2021/01/15 12:36:29;;;;;;;10.30;6.55;;;;;;;;;;4989143;28;107169;-49
2021/01/15 12:38:55;;;;;;;9.98;6.75;;;;;;;;;;5006676;28;104934;-49
2021/01/15 12:41:20;;;;;;;10.20;7.15;;;;;;;;;;5005485;28;105702;-50
2021/01/15 12:43:46;;;;;;;10.10;7.38;;;;;;;;;;5006015;28;104941;-48
2021/01/15 12:46:12;;;;;;;10.95;7.50;;;;;;;;;;5005246;28;105042;-49
2021/01/15 12:48:38;;;;;;;9.80;7.22;;;;;;;;;;5005570;28;105554;-49
2021/01/15 12:51:05;;;;;;;11.38;7.60;;;;;;;;;;4987806;28;107171;-50
2021/01/15 12:53:30;;;;;;;10.75;7.65;;;;;;;;;;5008771;28;105755;-48
2021/01/15 12:55:56;;;;;;;11.48;8.10;;;;;;;;;;5005952;28;105392;-49
2021/01/15 12:58:21;;;;;;;12.80;8.05;;;;;;;;;;5006137;28;105054;-49
2021/01/15 13:00:48;;;;;;;13.48;8.45;;;;;;;;;;5006329;28;105063;-49
2021/01/15 13:03:14;;;;;;;12.13;8.65;;;;;;;;;;5004142;28;108419;-48
2021/01/15 13:05:39;;;;;;;11.77;7.82;;;;;;;;;;5006318;28;104964;-50
2021/01/15 13:08:05;;;;;;;11.10;7.95;;;;;;;;;;5004367;28;113858;-49
2021/01/15 13:10:32;;;;;;;11.82;7.85;;;;;;;;;;5005414;28;106141;-49
2021/01/15 13:12:57;;;;;;;12.82;8.27;;;;;;;;;;5005225;28;105329;-51
2021/01/15 13:15:23;;;;;;;12.15;8.10;;;;;;;;;;5007797;28;110912;-49
2021/01/15 13:17:55;;;;;;;12.50;8.30;;;;;;;;;;5004120;28;105013;-49
2021/01/15 13:20:23;;;;;;;10.20;7.43;;;;;;;;;;5004279;28;105593;-49
2021/01/15 13:23:05;;;;;;;11.60;7.65;;;;;;;;;;5003059;28;106091;-49
2021/01/15 13:25:30;;;;;;;;;;;;;;;;;;5003053;28;106193;-50
2021/01/15 13:27:57;;;;;;;10.48;7.38;;;;;;;;;;5005889;28;105184;-49
2021/01/15 13:30:22;;;;;;;11.32;8.13;;;;;;;;;;5005668;28;105776;-50
2021/01/15 13:32:48;;;;;;;10.73;7.35;;;;;;;;;;5004584;28;105257;-49
2021/01/15 13:35:13;;;;;;;10.63;7.43;;;;;;;;;;5005647;28;105597;-49
2021/01/15 13:37:39;;;;;;;10.38;7.43;;;;;;;;;;5006367;28;105026;-50
2021/01/15 13:40:08;;;;;;;10.30;7.93;;;;;;;;;;5004134;28;105671;-49
2021/01/15 13:42:35;;;;;;;10.18;7.10;;;;;;;;;;5003702;28;105277;-50
2021/01/15 13:45:00;;;;;;;10.85;7.35;;;;;;;;;;5004909;28;104992;-53
2021/01/15 13:47:25;;;;;;;9.85;7.25;;;;;;;;;;5003863;28;108280;-52
2021/01/15 13:49:51;;;;;;;9.98;7.28;;;;;;;;;;5004905;28;104914;-49
2021/01/15 13:52:16;;;;;;;10.98;7.75;;;;;;;;;;5003108;28;105061;-50
2021/01/15 13:54:42;;;;;;;10.38;7.18;;;;;;;;;;5004009;28;105030;-48
2021/01/15 13:57:07;;;;;;;11.02;7.97;;;;;;;;;;5008033;28;106416;-48
2021/01/15 13:59:33;;;;;;;11.35;7.90;;;;;;;;;;5005599;28;105381;-48
2021/01/15 14:01:58;;;;;;;11.93;7.90;;;;;;;;;;5002711;28;105173;-49
2021/01/15 14:04:24;;;;;;;11.77;8.00;;;;;;;;;;5004795;28;106251;-48
2021/01/15 14:06:49;;;;;;;12.15;8.40;;;;;;;;;;5004649;28;116699;-50
2021/01/15 14:09:15;;;;;;;11.20;7.85;;;;;;;;;;5004807;28;105027;-48
2021/01/15 14:11:40;;;;;;;11.80;8.23;;;;;;;;;;5003940;28;105117;-51
2021/01/15 14:14:05;;;;;;;13.13;8.23;;;;;;;;;;5003816;28;105014;-49
2021/01/15 14:16:31;;;;;;;12.73;8.50;;;;;;;;;;5004632;28;107812;-50
2021/01/15 14:18:56;;;;;;;13.98;8.98;;;;;;;;;;5008786;28;104932;-49
2021/01/15 14:21:22;;;;;;;13.57;8.93;;;;;;;;;;5004365;28;105338;-48
2021/01/15 14:23:47;;;;;;;12.93;9.07;;;;;;;;;;5003176;28;105018;-48
2021/01/15 14:26:13;;;;;;;14.05;9.15;;;;;;;;;;5002875;28;105826;-49
2021/01/15 14:28:39;;;;;;;13.10;9.13;;;;;;;;;;5004700;28;104970;-50